createdAt,value
2022-12-23T00:00:59.213Z,100.00
2022-12-23T00:03:26.745Z,100.00
2022-12-23T00:05:53.631Z,100.00
2022-12-23T00:08:21.687Z,100.00
2022-12-23T00:10:49.731Z,100.00
2022-12-23T00:13:16.997Z,100.00
2022-12-23T00:15:43.319Z,100.00
2022-12-23T00:18:09.636Z,100.00
2022-12-23T00:20:35.953Z,100.00
2022-12-23T00:23:02.414Z,100.00
2022-12-23T00:25:28.731Z,100.00
2022-12-23T00:27:55.033Z,100.00
2022-12-23T00:30:21.339Z,100.00
2022-12-23T00:32:47.673Z,100.00
2022-12-23T00:35:14.132Z,100.00
2022-12-23T00:37:40.442Z,100.00
2022-12-23T00:40:09.486Z,100.00
2022-12-23T00:42:35.800Z,100.00
2022-12-23T00:45:02.141Z,100.00
2022-12-23T00:47:28.440Z,100.00
2022-12-23T00:49:54.744Z,100.00
2022-12-23T00:52:21.115Z,100.00
2022-12-23T00:54:47.425Z,100.00
2022-12-23T00:57:13.744Z,100.00
2022-12-23T00:59:40.042Z,100.00
2022-12-23T01:02:06.721Z,100.00
2022-12-23T01:04:33.420Z,100.00
2022-12-23T01:06:59.911Z,100.00
2022-12-23T01:09:26.569Z,100.00
2022-12-23T01:11:52.863Z,100.00
2022-12-23T01:14:19.354Z,100.00
2022-12-23T01:16:45.837Z,100.00
2022-12-23T01:19:12.425Z,100.00
2022-12-23T01:21:38.970Z,100.00
2022-12-23T01:24:05.561Z,100.00
2022-12-23T01:26:32.045Z,100.00
2022-12-23T01:28:58.851Z,100.00
2022-12-23T01:31:26.594Z,100.00
2022-12-23T01:33:54.164Z,100.00
2022-12-23T01:36:21.404Z,100.00
2022-12-23T01:38:48.037Z,100.00
2022-12-23T01:41:23.811Z,100.00
2022-12-23T01:43:51.897Z,100.00
2022-12-23T01:46:18.399Z,100.00
2022-12-23T01:48:49.523Z,100.00
2022-12-23T01:51:21.471Z,100.00
2022-12-23T01:53:52.776Z,100.00
2022-12-23T01:56:24.703Z,100.00
2022-12-23T01:58:57.317Z,100.00
2022-12-23T02:01:24.588Z,100.00
2022-12-23T02:03:55.255Z,100.00
2022-12-23T02:06:32.731Z,100.00
2022-12-23T02:08:59.160Z,100.00
2022-12-23T02:12:00.855Z,100.00
2022-12-23T02:14:59.123Z,100.00
2022-12-23T02:17:36.845Z,100.00
2022-12-23T02:20:28.317Z,100.00
2022-12-23T02:23:39.315Z,100.00
2022-12-23T02:26:20.409Z,100.00
2022-12-23T02:28:55.624Z,100.00
2022-12-23T02:31:32.254Z,100.00
2022-12-23T02:34:08.654Z,100.00
2022-12-23T02:36:54.013Z,100.00
2022-12-23T02:39:42.069Z,100.00
2022-12-23T02:42:22.158Z,100.00
2022-12-23T02:44:59.179Z,100.00
2022-12-23T02:47:36.037Z,100.00
2022-12-23T02:50:08.714Z,100.00
2022-12-23T02:52:38.340Z,100.00
2022-12-23T02:55:13.323Z,100.00
2022-12-23T02:57:46.055Z,100.00
2022-12-23T03:00:13.737Z,100.00
2022-12-23T03:02:42.008Z,100.00
2022-12-23T03:05:28.262Z,100.00
2022-12-23T03:08:02.672Z,100.00
2022-12-23T03:10:44.942Z,100.00
2022-12-23T03:13:42.367Z,100.00
2022-12-23T03:16:24.539Z,100.00
2022-12-23T03:19:12.448Z,100.00
2022-12-23T03:22:06.995Z,100.00
2022-12-23T03:24:46.589Z,100.00
2022-12-23T03:27:40.042Z,100.00
2022-12-23T03:30:13.704Z,100.00
2022-12-23T03:32:52.394Z,100.00
2022-12-23T03:35:23.414Z,100.00
2022-12-23T03:37:54.103Z,100.00
2022-12-23T03:40:27.979Z,100.00
2022-12-23T03:43:03.924Z,100.00
2022-12-23T03:45:39.453Z,100.00
2022-12-23T03:48:15.223Z,100.00
2022-12-23T03:50:43.166Z,100.00
2022-12-23T03:53:17.328Z,100.00
2022-12-23T03:55:58.731Z,100.00
2022-12-23T03:58:37.590Z,100.00
2022-12-23T04:01:03.838Z,100.00
2022-12-23T04:04:08.967Z,100.00
2022-12-23T04:06:59.704Z,100.00
2022-12-23T04:09:28.371Z,100.00
2022-12-23T04:11:55.202Z,100.00
2022-12-23T04:14:22.577Z,100.00
2022-12-23T04:16:53.465Z,100.00
2022-12-23T04:19:19.907Z,100.00
2022-12-23T04:21:46.241Z,100.00
2022-12-23T04:24:12.551Z,100.00
2022-12-23T04:26:38.867Z,100.00
2022-12-23T04:29:05.188Z,100.00
2022-12-23T04:31:31.751Z,100.00
2022-12-23T04:33:58.161Z,100.00
2022-12-23T04:36:24.479Z,100.00
2022-12-23T04:38:50.775Z,100.00
2022-12-23T04:41:17.083Z,100.00
2022-12-23T04:43:47.759Z,100.00
2022-12-23T04:46:17.383Z,100.00
2022-12-23T04:48:43.712Z,100.00
2022-12-23T04:51:10.033Z,100.00
2022-12-23T04:53:36.762Z,100.00
2022-12-23T04:56:03.646Z,100.00
2022-12-23T04:58:30.068Z,100.00
2022-12-23T05:01:08.321Z,100.00
2022-12-23T05:03:35.292Z,100.00
2022-12-23T05:06:01.701Z,100.00
2022-12-23T05:08:28.296Z,100.00
2022-12-23T05:10:54.945Z,100.00
2022-12-23T05:13:21.473Z,100.00
2022-12-23T05:15:52.680Z,100.00
2022-12-23T05:18:20.107Z,100.00
2022-12-23T05:20:46.747Z,100.00
2022-12-23T05:23:13.105Z,100.00
2022-12-23T05:25:39.982Z,100.00
2022-12-23T05:28:06.477Z,100.00
2022-12-23T05:30:32.767Z,100.00
2022-12-23T05:32:59.161Z,100.00
2022-12-23T05:35:26.779Z,100.00
2022-12-23T05:37:54.551Z,100.00
2022-12-23T05:40:24.939Z,100.00
2022-12-23T05:42:53.294Z,100.00
2022-12-23T05:45:19.673Z,100.00
2022-12-23T05:47:46.277Z,100.00
2022-12-23T05:50:12.845Z,100.00
2022-12-23T05:52:39.594Z,100.00
2022-12-23T05:55:06.470Z,100.00
2022-12-23T05:57:32.787Z,100.00
2022-12-23T05:59:59.098Z,100.00
2022-12-23T06:02:25.542Z,100.00
2022-12-23T06:04:51.947Z,100.00
2022-12-23T06:07:18.265Z,100.00
2022-12-23T06:09:44.565Z,100.00
2022-12-23T06:12:10.882Z,100.00
2022-12-23T06:14:37.186Z,100.00
2022-12-23T06:17:03.556Z,100.00
2022-12-23T06:19:29.962Z,100.00
2022-12-23T06:21:56.285Z,100.00
2022-12-23T06:24:22.580Z,100.00
2022-12-23T06:26:54.883Z,100.00
2022-12-23T06:29:23.251Z,100.00
2022-12-23T06:31:49.601Z,100.00
2022-12-23T06:34:15.975Z,100.00
2022-12-23T06:36:42.296Z,100.00
2022-12-23T06:39:10.353Z,100.00
2022-12-23T06:41:36.672Z,100.00
2022-12-23T06:44:03.111Z,100.00
2022-12-23T06:46:29.516Z,100.00
2022-12-23T06:48:55.886Z,100.00
2022-12-23T06:51:22.219Z,100.00
2022-12-23T06:53:48.525Z,100.00
2022-12-23T06:56:14.886Z,100.00
2022-12-23T06:58:41.217Z,100.00
2022-12-23T07:01:08.084Z,100.00
2022-12-23T07:03:36.631Z,100.00
2022-12-23T07:06:03.127Z,100.00
2022-12-23T07:08:29.473Z,100.00
2022-12-23T07:10:59.787Z,100.00
2022-12-23T07:13:26.882Z,100.00
2022-12-23T07:15:53.559Z,100.00
2022-12-23T07:18:22.179Z,100.00
2022-12-23T07:20:49.091Z,100.00
2022-12-23T07:23:15.733Z,100.00
2022-12-23T07:25:42.265Z,100.00
2022-12-23T07:28:08.570Z,100.00
2022-12-23T07:30:35.690Z,100.00
2022-12-23T07:33:03.190Z,100.00
2022-12-23T07:35:29.473Z,100.00
2022-12-23T07:37:56.513Z,100.00
2022-12-23T07:40:24.188Z,100.00
2022-12-23T07:42:54.893Z,100.00
2022-12-23T07:45:21.455Z,100.00
2022-12-23T07:47:47.873Z,100.00
2022-12-23T07:50:14.240Z,100.00
2022-12-23T07:52:40.576Z,100.00
2022-12-23T07:55:07.221Z,100.00
2022-12-23T07:57:33.552Z,100.00
2022-12-23T07:59:59.858Z,100.00
2022-12-23T08:02:26.298Z,100.00
2022-12-23T08:04:52.874Z,100.00
2022-12-23T08:07:19.200Z,100.00
2022-12-23T08:09:45.509Z,100.00
2022-12-23T08:12:11.819Z,100.00
2022-12-23T08:14:38.122Z,100.00
2022-12-23T08:17:04.557Z,100.00
2022-12-23T08:19:30.925Z,100.00
2022-12-23T08:21:57.227Z,100.00
2022-12-23T08:24:23.526Z,100.00
2022-12-23T08:26:49.984Z,100.00
2022-12-23T08:29:16.326Z,100.00
2022-12-23T08:31:42.680Z,100.00
2022-12-23T08:34:09.135Z,100.00
2022-12-23T08:36:36.215Z,100.00
2022-12-23T08:39:06.557Z,100.00
2022-12-23T08:41:37.377Z,100.00
2022-12-23T08:44:03.895Z,100.00
2022-12-23T08:46:30.342Z,100.00
2022-12-23T08:48:56.762Z,100.00
2022-12-23T08:51:24.507Z,100.00
2022-12-23T08:53:59.565Z,100.00
2022-12-23T08:56:29.629Z,100.00
2022-12-23T08:58:56.738Z,100.00
2022-12-23T09:01:26.121Z,100.00
2022-12-23T09:03:53.564Z,100.00
2022-12-23T09:06:29.949Z,100.00
2022-12-23T09:08:57.496Z,100.00
2022-12-23T09:11:26.608Z,99.77
2022-12-23T09:13:53.525Z,99.30
2022-12-23T09:16:20.382Z,98.82
2022-12-23T09:18:46.715Z,98.56
2022-12-23T09:21:15.235Z,97.82
2022-12-23T09:23:41.722Z,96.73
2022-12-23T09:26:09.560Z,96.41
2022-12-23T09:28:36.365Z,95.62
2022-12-23T09:31:07.810Z,95.91
2022-12-23T09:33:34.339Z,96.01
2022-12-23T09:36:01.911Z,96.28
2022-12-23T09:38:28.401Z,95.91
2022-12-23T09:41:17.867Z,96.38
2022-12-23T09:44:06.369Z,96.69
2022-12-23T09:46:35.050Z,97.07
2022-12-23T09:49:15.403Z,97.31
2022-12-23T09:51:41.731Z,96.85
2022-12-23T09:54:17.087Z,96.55
2022-12-23T09:57:08.124Z,96.63
2022-12-23T10:00:09.810Z,96.33
2022-12-23T10:03:07.672Z,95.98
2022-12-23T10:06:02.867Z,95.04
2022-12-23T10:08:39.754Z,94.08
2022-12-23T10:11:21.172Z,93.52
2022-12-23T10:13:52.213Z,93.31
2022-12-23T10:16:18.508Z,93.23
2022-12-23T10:18:55.368Z,93.42
2022-12-23T10:21:28.213Z,93.69
2022-12-23T10:23:55.229Z,93.30
2022-12-23T10:26:32.149Z,92.82
2022-12-23T10:29:19.076Z,93.11
2022-12-23T10:32:19.209Z,93.43
2022-12-23T10:35:15.610Z,93.35
2022-12-23T10:37:46.078Z,92.99
2022-12-23T10:40:49.859Z,92.98
2022-12-23T10:43:50.226Z,92.85
2022-12-23T10:46:54.104Z,92.85
2022-12-23T10:49:53.993Z,92.13
2022-12-23T10:52:23.480Z,91.93
2022-12-23T10:54:49.780Z,92.51
2022-12-23T10:57:18.800Z,93.13
2022-12-23T10:59:45.138Z,93.55
2022-12-23T11:02:11.552Z,93.88
2022-12-23T11:04:39.713Z,92.01
2022-12-23T11:07:42.944Z,92.14
2022-12-23T11:10:04.281Z,93.13
2022-12-23T11:12:42.483Z,93.16
2022-12-23T11:15:30.827Z,92.48
2022-12-23T11:18:01.982Z,92.91
2022-12-23T11:20:28.767Z,92.57
2022-12-23T11:22:58.007Z,92.39
2022-12-23T11:25:29.313Z,92.73
2022-12-23T11:28:20.293Z,92.41
2022-12-23T11:30:56.662Z,91.81
2022-12-23T11:33:27.901Z,91.88
2022-12-23T11:36:23.566Z,91.22
2022-12-23T11:39:14.309Z,91.59
2022-12-23T11:41:46.505Z,91.00
2022-12-23T11:44:38.095Z,90.12
2022-12-23T11:47:40.834Z,89.22
2022-12-23T11:50:20.144Z,89.41
2022-12-23T11:52:52.466Z,90.42
2022-12-23T11:55:31.299Z,90.34
2022-12-23T11:57:57.669Z,90.16
2022-12-23T12:00:34.190Z,89.71
2022-12-23T12:03:03.471Z,89.98
2022-12-23T12:05:46.221Z,90.69
2022-12-23T12:08:20.962Z,91.50
2022-12-23T12:10:52.404Z,91.93
2022-12-23T12:13:32.364Z,92.44
2022-12-23T12:16:13.686Z,93.01
2022-12-23T12:18:43.368Z,93.18
2022-12-23T12:21:14.931Z,92.96
2022-12-23T12:24:14.739Z,92.38
2022-12-23T12:26:41.405Z,91.99
2022-12-23T12:29:18.358Z,92.20
2022-12-23T12:31:50.675Z,92.09
2022-12-23T12:34:29.876Z,93.01
2022-12-23T12:37:04.329Z,94.23
2022-12-23T12:39:36.104Z,94.79
2022-12-23T12:42:14.494Z,94.59
2022-12-23T12:44:55.620Z,94.70
2022-12-23T12:50:23.235Z,94.92
2022-12-23T12:52:53.252Z,95.08
2022-12-23T12:55:26.053Z,95.45
2022-12-23T12:57:52.379Z,95.65
2022-12-23T13:00:22.757Z,95.62
2022-12-23T13:03:10.610Z,96.25
2022-12-23T13:05:59.678Z,96.70
2022-12-23T13:08:54.610Z,97.16
2022-12-23T13:11:29.832Z,97.71
2022-12-23T13:14:17.139Z,98.04
2022-12-23T13:16:52.434Z,98.55
2022-12-23T13:19:33.513Z,98.29
2022-12-23T13:22:15.352Z,98.03
2022-12-23T13:25:12.523Z,98.36
2022-12-23T13:27:47.643Z,98.43
2022-12-23T13:30:16.475Z,98.47
2022-12-23T13:33:07.683Z,98.62
2022-12-23T13:36:09.279Z,98.72
2022-12-23T13:39:06.535Z,98.70
2022-12-23T13:41:37.082Z,98.85
2022-12-23T13:44:05.800Z,98.91
2022-12-23T13:47:09.720Z,99.67
2022-12-23T13:49:59.549Z,99.89
2022-12-23T13:52:41.324Z,100.00
2022-12-23T13:55:43.911Z,100.00
2022-12-23T13:58:19.864Z,100.00
2022-12-23T14:00:46.414Z,100.00
2022-12-23T14:03:24.022Z,100.00
2022-12-23T14:05:52.650Z,100.00
2022-12-23T14:08:18.934Z,100.00
2022-12-23T14:11:18.442Z,100.00
2022-12-23T14:13:50.841Z,100.00
2022-12-23T14:16:55.004Z,100.00
2022-12-23T14:19:30.252Z,100.00
2022-12-23T14:22:21.516Z,100.00
2022-12-23T14:25:00.136Z,100.00
2022-12-23T14:28:01.661Z,100.00
2022-12-23T14:30:44.353Z,100.00
2022-12-23T14:33:25.162Z,100.00
2022-12-23T14:35:59.078Z,100.00
2022-12-23T14:38:32.468Z,100.00
2022-12-23T14:41:21.200Z,100.00
2022-12-23T14:43:51.125Z,100.00
2022-12-23T14:46:35.576Z,100.00
2022-12-23T14:49:29.885Z,100.00
2022-12-23T14:51:48.754Z,100.00
2022-12-23T14:54:15.587Z,100.00
2022-12-23T14:56:57.588Z,100.00
2022-12-23T14:59:37.447Z,100.00
2022-12-23T15:02:17.249Z,100.00
2022-12-23T15:04:52.925Z,100.00
2022-12-23T15:07:36.270Z,100.00
2022-12-23T15:10:08.558Z,100.00
2022-12-23T15:12:38.555Z,100.00
2022-12-23T15:15:13.260Z,100.00
2022-12-23T15:17:39.835Z,100.00
2022-12-23T15:20:24.319Z,100.00
2022-12-23T15:22:50.943Z,100.00
2022-12-23T15:25:33.627Z,100.00
2022-12-23T15:28:02.808Z,100.00
2022-12-23T15:30:34.351Z,100.00
2022-12-23T15:33:04.227Z,100.00
2022-12-23T15:35:34.593Z,100.00
2022-12-23T15:38:02.298Z,100.00
2022-12-23T15:40:32.169Z,100.00
2022-12-23T15:42:59.130Z,100.00
2022-12-23T15:45:35.275Z,100.00
2022-12-23T15:48:03.321Z,100.00
2022-12-23T15:50:30.617Z,100.00
2022-12-23T15:53:04.258Z,100.00
2022-12-23T15:55:32.911Z,100.00
2022-12-23T15:58:00.655Z,100.00
2022-12-23T16:00:40.649Z,100.00
2022-12-23T16:03:32.670Z,100.00
2022-12-23T16:06:09.823Z,100.00
2022-12-23T16:08:37.688Z,100.00
2022-12-23T16:11:13.817Z,100.00
2022-12-23T16:13:46.711Z,100.00
2022-12-23T16:16:30.765Z,100.00
2022-12-23T16:18:58.249Z,100.00
2022-12-23T16:21:30.590Z,100.00
2022-12-23T16:23:57.882Z,100.00
2022-12-23T16:26:24.602Z,100.00
2022-12-23T16:28:54.491Z,100.00
2022-12-23T16:31:21.359Z,100.00
2022-12-23T16:33:47.695Z,100.00
2022-12-23T16:36:31.547Z,100.00
2022-12-23T16:39:13.848Z,100.00
2022-12-23T16:41:40.164Z,100.00
2022-12-23T16:44:06.537Z,100.00
2022-12-23T16:46:35.989Z,100.00
2022-12-23T16:49:05.292Z,100.00
2022-12-23T16:51:31.951Z,100.00
2022-12-23T16:53:58.320Z,100.00
2022-12-23T16:56:28.381Z,100.00
2022-12-23T16:58:54.712Z,100.00
2022-12-23T17:01:22.779Z,100.00
2022-12-23T17:03:49.935Z,100.00
2022-12-23T17:06:17.094Z,100.00
2022-12-23T17:08:43.457Z,100.00
2022-12-23T17:11:16.103Z,100.00
2022-12-23T17:13:42.509Z,100.00
2022-12-23T17:16:14.754Z,100.00
2022-12-23T17:18:41.355Z,100.00
2022-12-23T17:21:23.202Z,100.00
2022-12-23T17:23:53.070Z,100.00
2022-12-23T17:26:19.438Z,100.00
2022-12-23T17:28:45.788Z,100.00
2022-12-23T17:31:16.221Z,100.00
2022-12-23T17:33:44.545Z,100.00
2022-12-23T17:36:11.724Z,100.00
2022-12-23T17:38:38.133Z,100.00
2022-12-23T17:41:04.774Z,100.00
2022-12-23T17:43:31.223Z,100.00
2022-12-23T17:45:57.702Z,100.00
2022-12-23T17:48:28.145Z,100.00
2022-12-23T17:50:57.890Z,100.00
2022-12-23T17:53:24.209Z,100.00
2022-12-23T17:55:50.558Z,100.00
2022-12-23T17:58:16.873Z,100.00
2022-12-23T18:00:43.343Z,100.00
2022-12-23T18:03:21.652Z,100.00
2022-12-23T18:05:47.965Z,100.00
2022-12-23T18:08:14.389Z,100.00
2022-12-23T18:10:40.874Z,100.00
2022-12-23T18:13:13.648Z,100.00
2022-12-23T18:15:42.729Z,100.00
2022-12-23T18:18:24.603Z,100.00
2022-12-23T18:20:56.848Z,100.00
2022-12-23T18:23:27.408Z,100.00
2022-12-23T18:25:54.617Z,100.00
2022-12-23T18:28:21.262Z,100.00
2022-12-23T18:30:47.655Z,100.00
2022-12-23T18:33:14.064Z,100.00
2022-12-23T18:35:45.729Z,100.00
2022-12-23T18:38:12.611Z,100.00
2022-12-23T18:40:40.127Z,100.00
2022-12-23T18:43:06.788Z,100.00
2022-12-23T18:45:37.120Z,100.00
2022-12-23T18:48:08.101Z,100.00
2022-12-23T18:50:36.640Z,100.00
2022-12-23T18:53:03.801Z,100.00
2022-12-23T18:55:31.016Z,100.00
2022-12-23T18:57:58.968Z,100.00
2022-12-23T19:00:28.816Z,100.00
2022-12-23T19:02:56.548Z,100.00
2022-12-23T19:05:26.437Z,100.00
2022-12-23T19:07:54.412Z,100.00
2022-12-23T19:10:22.306Z,100.00
2022-12-23T19:12:48.659Z,100.00
2022-12-23T19:15:15.791Z,100.00
2022-12-23T19:17:42.196Z,100.00
2022-12-23T19:20:11.964Z,100.00
2022-12-23T19:22:38.552Z,100.00
2022-12-23T19:25:06.706Z,100.00
2022-12-23T19:27:33.873Z,100.00
2022-12-23T19:30:00.186Z,100.00
2022-12-23T19:32:26.623Z,100.00
2022-12-23T19:34:52.949Z,100.00
2022-12-23T19:37:19.339Z,100.00
2022-12-23T19:39:45.633Z,100.00
2022-12-23T19:42:11.936Z,100.00
2022-12-23T19:44:38.252Z,100.00
2022-12-23T19:47:04.591Z,100.00
2022-12-23T19:49:30.884Z,100.00
2022-12-23T19:51:57.236Z,100.00
2022-12-23T19:54:23.513Z,100.00
2022-12-23T19:56:50.561Z,100.00
2022-12-23T19:59:17.319Z,100.00
2022-12-23T20:01:44.371Z,100.00
2022-12-23T20:04:11.621Z,100.00
2022-12-23T20:06:39.897Z,100.00
2022-12-23T20:09:08.628Z,100.00
2022-12-23T20:11:40.081Z,100.00
2022-12-23T20:14:07.078Z,100.00
2022-12-23T20:16:34.778Z,100.00
2022-12-23T20:19:01.271Z,100.00
2022-12-23T20:21:27.622Z,100.00
2022-12-23T20:23:53.988Z,100.00
2022-12-23T20:26:20.872Z,100.00
2022-12-23T20:28:47.191Z,100.00
2022-12-23T20:31:21.867Z,100.00
2022-12-23T20:33:49.748Z,100.00
2022-12-23T20:36:18.622Z,100.00
2022-12-23T20:38:47.079Z,100.00
2022-12-23T20:41:16.908Z,100.00
2022-12-23T20:43:46.066Z,100.00
2022-12-23T20:46:19.705Z,100.00
2022-12-23T20:48:46.887Z,100.00
2022-12-23T20:51:15.900Z,100.00
2022-12-23T20:53:42.562Z,100.00
2022-12-23T20:56:15.006Z,100.00
2022-12-23T20:58:42.061Z,100.00
2022-12-23T21:01:13.480Z,100.00
2022-12-23T21:03:40.543Z,100.00
2022-12-23T21:06:08.829Z,100.00
2022-12-23T21:08:36.637Z,100.00
2022-12-23T21:11:04.057Z,100.00
2022-12-23T21:13:30.486Z,100.00
2022-12-23T21:16:05.051Z,100.00
2022-12-23T21:18:31.761Z,100.00
2022-12-23T21:21:03.005Z,100.00
2022-12-23T21:23:29.835Z,100.00
2022-12-23T21:26:15.087Z,100.00
2022-12-23T21:28:42.074Z,100.00
2022-12-23T21:31:09.578Z,100.00
2022-12-23T21:33:38.148Z,100.00
2022-12-23T21:36:06.212Z,100.00
2022-12-23T21:38:38.652Z,100.00
2022-12-23T21:41:07.890Z,100.00
2022-12-23T21:43:34.356Z,100.00
2022-12-23T21:46:03.136Z,100.00
2022-12-23T21:48:34.392Z,100.00
2022-12-23T21:51:18.726Z,100.00
2022-12-23T21:53:46.820Z,100.00
2022-12-23T21:56:19.157Z,100.00
2022-12-23T21:58:45.940Z,100.00
2022-12-23T22:01:15.087Z,100.00
2022-12-23T22:03:42.203Z,100.00
2022-12-23T22:06:14.905Z,100.00
2022-12-23T22:08:42.104Z,100.00
2022-12-23T22:11:13.763Z,100.00
2022-12-23T22:13:40.878Z,100.00
2022-12-23T22:16:12.205Z,100.00
2022-12-23T22:18:39.839Z,100.00
2022-12-23T22:21:08.685Z,100.00
2022-12-23T22:23:36.045Z,100.00
2022-12-23T22:26:02.376Z,100.00
2022-12-23T22:28:31.180Z,100.00
2022-12-23T22:31:15.997Z,100.00
2022-12-23T22:33:42.320Z,100.00
2022-12-23T22:36:11.851Z,100.00
2022-12-23T22:38:38.329Z,100.00
2022-12-23T22:41:04.913Z,100.00
2022-12-23T22:43:31.199Z,100.00
2022-12-23T22:45:59.745Z,100.00
2022-12-23T22:48:27.597Z,100.00
2022-12-23T22:51:20.504Z,100.00
2022-12-23T22:53:46.992Z,100.00
2022-12-23T22:56:15.968Z,100.00
2022-12-23T22:58:42.701Z,100.00
2022-12-23T23:01:29.971Z,100.00
2022-12-23T23:03:58.129Z,100.00
2022-12-23T23:06:30.255Z,100.00
2022-12-23T23:08:57.288Z,100.00
2022-12-23T23:11:24.977Z,100.00
2022-12-23T23:13:51.673Z,100.00
2022-12-23T23:16:18.126Z,100.00
2022-12-23T23:18:44.635Z,100.00
2022-12-23T23:21:12.859Z,100.00
2022-12-23T23:23:39.292Z,100.00
2022-12-23T23:26:05.991Z,100.00
2022-12-23T23:28:32.309Z,100.00
2022-12-23T23:31:17.096Z,100.00
2022-12-23T23:33:45.073Z,100.00
2022-12-23T23:36:11.485Z,100.00
2022-12-23T23:38:37.883Z,100.00
2022-12-23T23:41:04.584Z,100.00
2022-12-23T23:43:30.903Z,100.00
2022-12-23T23:45:57.307Z,100.00
2022-12-23T23:48:23.679Z,100.00
2022-12-23T23:50:50.026Z,100.00
2022-12-23T23:53:16.804Z,100.00
2022-12-23T23:55:43.454Z,100.00
2022-12-23T23:58:11.124Z,100.00
